createdAt,value
2023-02-24T00:08:39.157Z,100594.00
2023-02-24T00:18:39.144Z,100590.00
2023-02-24T00:28:39.471Z,100581.00
2023-02-24T00:38:40.138Z,100567.00
2023-02-24T00:48:40.427Z,100553.00
2023-02-24T00:58:40.444Z,100531.00
2023-02-24T01:08:42.336Z,100519.00
2023-02-24T01:18:43.066Z,100505.00
2023-02-24T01:28:45.253Z,100504.00
2023-02-24T01:38:45.430Z,100498.00
2023-02-24T01:48:45.247Z,100490.00
2023-02-24T01:58:45.182Z,100482.00
2023-02-24T02:08:45.378Z,100476.00
2023-02-24T02:18:45.241Z,100468.00
2023-02-24T02:28:45.373Z,100457.00
2023-02-24T02:38:45.344Z,100447.00
2023-02-24T02:48:47.145Z,100431.00
2023-02-24T02:58:49.168Z,100413.00
2023-02-24T03:09:11.511Z,100402.00
2023-02-24T03:19:14.744Z,100388.00
2023-02-24T03:29:18.107Z,100378.00
2023-02-24T03:39:20.269Z,100374.00
2023-02-24T03:49:20.987Z,100372.00
2023-02-24T03:59:23.930Z,100366.00
2023-02-24T04:09:27.028Z,100361.00
2023-02-24T04:19:28.780Z,100361.00
2023-02-24T04:29:31.511Z,100355.00
2023-02-24T04:39:32.424Z,100345.00
2023-02-24T04:49:33.595Z,100335.00
2023-02-24T04:59:33.476Z,100329.00
2023-02-24T05:09:33.520Z,100323.00
2023-02-24T05:19:51.905Z,100311.00
2023-02-24T05:29:54.689Z,100302.00
2023-02-24T05:39:54.502Z,100296.00
2023-02-24T05:49:56.398Z,100288.00
2023-02-24T05:59:56.767Z,100272.00
2023-02-24T06:09:56.969Z,100262.00
2023-02-24T06:19:57.506Z,100254.00
2023-02-24T06:29:58.239Z,100248.00
2023-02-24T06:39:59.082Z,100240.00
2023-02-24T06:49:59.582Z,100240.00
2023-02-24T06:59:59.693Z,100232.00
2023-02-24T07:09:59.690Z,100234.00
2023-02-24T07:20:02.288Z,100229.00
2023-02-24T07:30:05.913Z,100223.00
2023-02-24T07:40:07.573Z,100215.00
2023-02-24T07:50:09.488Z,100199.00
2023-02-24T08:00:15.819Z,100182.00
2023-02-24T08:10:24.017Z,100168.00
2023-02-24T08:20:29.249Z,100160.00
2023-02-24T08:30:29.800Z,100148.00
2023-02-24T08:40:39.154Z,100138.00
2023-02-24T08:50:39.771Z,100123.00
2023-02-24T09:00:44.695Z,100115.00
2023-02-24T09:10:45.897Z,100103.00
2023-02-24T09:21:08.179Z,100091.00
2023-02-24T09:31:09.018Z,100082.00
2023-02-24T09:41:18.318Z,100072.00
2023-02-24T09:51:12.693Z,100066.00
2023-02-24T10:01:21.057Z,100054.00
2023-02-24T10:11:24.953Z,100036.00
2023-02-24T10:21:28.731Z,100018.00
2023-02-24T10:31:30.351Z,100001.00
2023-02-24T10:41:32.769Z,99985.00
2023-02-24T10:51:32.843Z,99975.00
2023-02-24T11:01:42.290Z,99965.00
2023-02-24T11:12:02.450Z,99959.00
2023-02-24T11:22:02.959Z,99936.00
2023-02-24T11:32:03.179Z,99920.00
2023-02-24T11:42:04.927Z,99903.00
2023-02-24T11:52:04.937Z,99885.00
2023-02-24T12:02:05.726Z,99869.00
2023-02-24T12:12:06.840Z,99854.00
2023-02-24T12:22:07.360Z,99838.00
2023-02-24T12:32:10.072Z,99822.00
2023-02-24T12:42:10.037Z,99813.00
2023-02-24T12:52:10.176Z,99799.00
2023-02-24T13:02:10.068Z,99785.00
2023-02-24T13:12:10.302Z,99761.00
2023-02-24T13:22:10.056Z,99747.00
2023-02-24T13:32:10.192Z,99733.00
2023-02-24T13:42:10.140Z,99726.00
2023-02-24T13:52:10.046Z,99706.00
2023-02-24T14:02:10.326Z,99692.00
2023-02-24T14:12:10.423Z,99685.00
2023-02-24T14:22:11.762Z,99675.00
2023-02-24T14:32:12.289Z,99663.00
2023-02-24T14:42:12.212Z,99651.00
2023-02-24T14:52:12.119Z,99641.00
2023-02-24T15:02:12.125Z,99634.00
2023-02-24T15:12:12.257Z,99628.00
2023-02-24T15:22:12.172Z,99610.00
2023-02-24T15:32:12.389Z,99598.00
2023-02-24T15:42:13.282Z,99587.00
2023-02-24T15:52:13.288Z,99573.00
2023-02-24T16:02:13.256Z,99555.00
2023-02-24T16:12:13.281Z,99547.00
2023-02-24T16:22:13.201Z,99542.00
2023-02-24T16:32:13.542Z,99534.00
2023-02-24T16:42:14.297Z,99526.00
2023-02-24T16:52:16.190Z,99532.00
2023-02-24T17:02:16.330Z,99538.00
2023-02-24T17:12:16.341Z,99544.00
2023-02-24T17:22:17.310Z,99544.00
2023-02-24T17:32:17.525Z,99540.00
2023-02-24T17:42:17.344Z,99547.00
2023-02-24T17:52:17.415Z,99551.00
2023-02-24T18:02:17.535Z,99555.00
2023-02-24T18:12:18.237Z,99559.00
2023-02-24T18:22:18.428Z,99555.00
2023-02-24T18:32:18.694Z,99563.00
2023-02-24T18:42:19.417Z,99569.00
2023-02-24T18:52:19.366Z,99571.00
2023-02-24T19:02:19.524Z,99569.00
2023-02-24T19:12:20.068Z,99577.00
2023-02-24T19:22:20.446Z,99592.00
2023-02-24T19:32:20.612Z,99602.00
2023-02-24T19:42:20.501Z,99608.00
2023-02-24T19:52:33.597Z,99616.00
2023-02-24T20:02:33.482Z,99616.00
2023-02-24T20:12:33.567Z,99628.00
2023-02-24T20:22:33.587Z,99639.00
2023-02-24T20:32:33.834Z,99647.00
2023-02-24T20:42:34.613Z,99659.00
2023-02-24T20:52:34.851Z,99655.00
2023-02-24T21:02:34.682Z,99659.00
2023-02-24T21:12:34.721Z,99671.00
2023-02-24T21:22:34.625Z,99669.00
2023-02-24T21:32:34.672Z,99673.00
2023-02-24T21:42:34.634Z,99677.00
2023-02-24T21:52:34.994Z,99679.00
2023-02-24T22:02:35.694Z,99686.00
2023-02-24T22:12:35.662Z,99692.00
2023-02-24T22:22:35.823Z,99694.00
2023-02-24T22:32:35.748Z,99696.00
2023-02-24T22:42:35.702Z,99704.00
2023-02-24T22:52:35.789Z,99704.00
2023-02-24T23:02:35.756Z,99710.00
2023-02-24T23:12:37.127Z,99718.00
2023-02-24T23:22:38.070Z,99730.00
2023-02-24T23:32:37.977Z,99739.00
2023-02-24T23:42:37.739Z,99745.00
2023-02-24T23:52:37.865Z,99751.00
